createdAt,value
2022-12-01T17:24:59.023Z,44.69
2022-12-01T17:27:44.728Z,45.08
2022-12-01T17:30:29.895Z,44.69
2022-12-01T17:33:14.741Z,44.97
2022-12-01T17:35:59.965Z,45.22
2022-12-01T17:38:45.263Z,44.37
2022-12-01T17:41:30.178Z,44.57
2022-12-01T17:44:14.953Z,44.33
2022-12-01T17:47:00.017Z,44.70
2022-12-01T17:49:44.957Z,44.79
2022-12-01T17:52:29.991Z,44.79
2022-12-01T17:55:15.346Z,44.10
2022-12-01T17:58:01.192Z,44.93
2022-12-01T18:00:46.357Z,44.83
2022-12-01T18:03:31.760Z,44.41
2022-12-01T18:06:17.352Z,44.67
2022-12-01T18:09:02.447Z,44.91
2022-12-01T18:11:48.269Z,44.26
2022-12-01T18:14:33.740Z,44.46
2022-12-01T18:17:18.889Z,44.98
2022-12-01T18:20:04.641Z,44.18
2022-12-01T18:22:49.802Z,44.03
2022-12-01T18:25:34.787Z,44.92
2022-12-01T18:28:19.664Z,44.23
2022-12-01T18:31:04.816Z,44.03
2022-12-01T18:33:50.114Z,44.49
2022-12-01T18:36:35.495Z,44.69
2022-12-01T18:39:21.117Z,44.63
2022-12-01T18:42:06.408Z,44.70
2022-12-01T18:44:51.967Z,44.11
2022-12-01T18:47:37.568Z,44.19
2022-12-01T18:50:22.976Z,44.63
2022-12-01T18:53:07.815Z,44.02
2022-12-01T18:55:53.770Z,44.69
2022-12-01T18:58:39.152Z,44.10
2022-12-01T19:01:24.637Z,44.61
2022-12-01T19:04:10.144Z,44.29
2022-12-01T19:06:55.644Z,44.14
2022-12-01T19:09:40.953Z,44.60
2022-12-01T19:12:26.460Z,44.69
2022-12-01T19:15:11.493Z,45.00
2022-12-01T19:17:57.306Z,44.42
2022-12-01T19:20:42.630Z,44.96
2022-12-01T19:23:27.841Z,44.81
2022-12-01T19:26:13.123Z,44.81
2022-12-01T19:28:58.526Z,44.63
2022-12-01T19:31:44.199Z,44.29
2022-12-01T19:34:29.271Z,44.61
2022-12-01T19:37:14.130Z,45.05
2022-12-01T19:39:59.315Z,44.66
2022-12-01T19:42:47.281Z,45.04
2022-12-01T19:45:32.536Z,44.53
2022-12-01T19:48:17.611Z,44.90
2022-12-01T19:51:03.101Z,45.08
2022-12-01T19:53:48.503Z,44.30
2022-12-01T19:56:33.623Z,44.86
2022-12-01T19:59:18.900Z,45.20
2022-12-01T20:02:03.695Z,44.90
2022-12-01T20:04:49.584Z,44.80
2022-12-01T20:07:35.168Z,44.55
2022-12-01T20:10:20.046Z,45.07
2022-12-01T20:13:06.282Z,45.18
2022-12-01T20:15:51.548Z,44.59
2022-12-01T20:18:36.630Z,44.86
2022-12-01T20:21:21.446Z,45.36
2022-12-01T20:24:06.401Z,44.76
2022-12-01T20:26:51.184Z,44.57
2022-12-01T20:29:36.038Z,45.36
2022-12-01T20:32:23.685Z,45.02
2022-12-01T20:35:08.741Z,45.07
2022-12-01T20:37:54.093Z,44.12
2022-12-01T20:40:39.641Z,43.56
2022-12-01T20:43:25.476Z,42.59
2022-12-01T20:46:11.035Z,42.23
2022-12-01T20:48:55.770Z,42.23
2022-12-01T20:51:40.615Z,42.13
2022-12-01T20:54:28.268Z,42.08
2022-12-01T20:57:14.418Z,41.82
2022-12-01T20:59:59.391Z,41.99
2022-12-01T21:02:44.474Z,41.81
2022-12-01T21:05:29.721Z,41.99
2022-12-01T21:08:14.825Z,41.75
2022-12-01T21:11:00.954Z,41.24
2022-12-01T21:13:46.449Z,41.48
2022-12-01T21:16:31.734Z,41.57
2022-12-01T21:19:17.516Z,41.77
2022-12-01T21:22:02.929Z,41.23
2022-12-01T21:24:47.801Z,40.82
2022-12-01T21:27:33.131Z,40.90
2022-12-01T21:30:18.276Z,41.34
2022-12-01T21:33:06.436Z,41.04
